sensor_id;sensor_type;location;lat;lon;timestamp;P1;durP1;ratioP1;P2;durP2;ratioP2
83840;SDS011;73868;52.172;10.668;2024-03-07T00:00:10;23.90;;;17.70;;
83840;SDS011;73868;52.172;10.668;2024-03-07T00:02:41;22.60;;;17.23;;
83840;SDS011;73868;52.172;10.668;2024-03-07T00:05:07;20.43;;;16.60;;
83840;SDS011;73868;52.172;10.668;2024-03-07T00:07:33;19.90;;;16.50;;
83840;SDS011;73868;52.172;10.668;2024-03-07T00:09:59;23.17;;;17.37;;
83840;SDS011;73868;52.172;10.668;2024-03-07T00:12:25;20.80;;;16.97;;
83840;SDS011;73868;52.172;10.668;2024-03-07T00:14:52;22.77;;;16.60;;
83840;SDS011;73868;52.172;10.668;2024-03-07T00:17:18;21.07;;;17.33;;
83840;SDS011;73868;52.172;10.668;2024-03-07T00:19:44;21.33;;;16.40;;
83840;SDS011;73868;52.172;10.668;2024-03-07T00:22:10;21.67;;;16.83;;
83840;SDS011;73868;52.172;10.668;2024-03-07T00:24:36;22.57;;;16.43;;
83840;SDS011;73868;52.172;10.668;2024-03-07T00:27:03;22.47;;;16.67;;
83840;SDS011;73868;52.172;10.668;2024-03-07T00:29:28;22.27;;;17.47;;
83840;SDS011;73868;52.172;10.668;2024-03-07T00:31:54;23.60;;;18.07;;
83840;SDS011;73868;52.172;10.668;2024-03-07T00:34:20;23.07;;;17.10;;
83840;SDS011;73868;52.172;10.668;2024-03-07T00:36:48;22.63;;;16.97;;
83840;SDS011;73868;52.172;10.668;2024-03-07T00:39:13;23.13;;;15.93;;
83840;SDS011;73868;52.172;10.668;2024-03-07T00:41:39;21.50;;;16.60;;
83840;SDS011;73868;52.172;10.668;2024-03-07T00:44:06;21.37;;;16.07;;
83840;SDS011;73868;52.172;10.668;2024-03-07T00:46:34;19.07;;;16.00;;
83840;SDS011;73868;52.172;10.668;2024-03-07T00:49:01;25.07;;;18.23;;
83840;SDS011;73868;52.172;10.668;2024-03-07T00:51:26;25.77;;;18.67;;
83840;SDS011;73868;52.172;10.668;2024-03-07T00:53:52;22.70;;;17.40;;
83840;SDS011;73868;52.172;10.668;2024-03-07T00:56:18;24.60;;;18.60;;
83840;SDS011;73868;52.172;10.668;2024-03-07T00:58:43;27.17;;;19.87;;
83840;SDS011;73868;52.172;10.668;2024-03-07T01:01:09;28.20;;;19.67;;
83840;SDS011;73868;52.172;10.668;2024-03-07T01:03:36;23.97;;;18.53;;
83840;SDS011;73868;52.172;10.668;2024-03-07T01:06:03;23.37;;;18.73;;
83840;SDS011;73868;52.172;10.668;2024-03-07T01:08:28;27.93;;;18.23;;
83840;SDS011;73868;52.172;10.668;2024-03-07T01:10:57;22.53;;;17.03;;
83840;SDS011;73868;52.172;10.668;2024-03-07T01:13:23;22.33;;;18.07;;
83840;SDS011;73868;52.172;10.668;2024-03-07T01:15:49;23.23;;;18.43;;
83840;SDS011;73868;52.172;10.668;2024-03-07T01:18:15;23.47;;;17.60;;
83840;SDS011;73868;52.172;10.668;2024-03-07T01:20:42;19.60;;;15.80;;
83840;SDS011;73868;52.172;10.668;2024-03-07T01:23:07;20.13;;;15.63;;
83840;SDS011;73868;52.172;10.668;2024-03-07T01:25:33;21.00;;;15.93;;
83840;SDS011;73868;52.172;10.668;2024-03-07T01:27:59;20.47;;;16.33;;
83840;SDS011;73868;52.172;10.668;2024-03-07T01:30:25;18.23;;;15.00;;
83840;SDS011;73868;52.172;10.668;2024-03-07T01:32:53;18.67;;;14.93;;
83840;SDS011;73868;52.172;10.668;2024-03-07T01:35:19;17.77;;;14.97;;
83840;SDS011;73868;52.172;10.668;2024-03-07T01:37:45;21.00;;;16.20;;
83840;SDS011;73868;52.172;10.668;2024-03-07T01:40:11;20.77;;;15.73;;
83840;SDS011;73868;52.172;10.668;2024-03-07T01:42:39;18.57;;;15.37;;
83840;SDS011;73868;52.172;10.668;2024-03-07T01:45:05;18.60;;;14.80;;
83840;SDS011;73868;52.172;10.668;2024-03-07T01:47:32;22.70;;;19.20;;
83840;SDS011;73868;52.172;10.668;2024-03-07T01:49:58;24.47;;;19.33;;
83840;SDS011;73868;52.172;10.668;2024-03-07T01:52:24;22.80;;;18.53;;
83840;SDS011;73868;52.172;10.668;2024-03-07T01:54:50;20.93;;;17.40;;
83840;SDS011;73868;52.172;10.668;2024-03-07T01:57:16;19.57;;;16.80;;
83840;SDS011;73868;52.172;10.668;2024-03-07T01:59:43;22.33;;;15.30;;
83840;SDS011;73868;52.172;10.668;2024-03-07T02:02:10;16.83;;;14.93;;
83840;SDS011;73868;52.172;10.668;2024-03-07T02:04:35;18.67;;;15.07;;
83840;SDS011;73868;52.172;10.668;2024-03-07T02:07:01;17.80;;;14.57;;
83840;SDS011;73868;52.172;10.668;2024-03-07T02:09:26;18.70;;;14.60;;
83840;SDS011;73868;52.172;10.668;2024-03-07T02:11:52;16.73;;;14.23;;
83840;SDS011;73868;52.172;10.668;2024-03-07T02:14:17;16.57;;;14.30;;
83840;SDS011;73868;52.172;10.668;2024-03-07T02:16:43;18.67;;;15.07;;
83840;SDS011;73868;52.172;10.668;2024-03-07T02:19:11;18.53;;;14.50;;
83840;SDS011;73868;52.172;10.668;2024-03-07T02:21:40;17.70;;;14.67;;
83840;SDS011;73868;52.172;10.668;2024-03-07T02:24:06;18.97;;;14.57;;
83840;SDS011;73868;52.172;10.668;2024-03-07T02:26:31;17.60;;;15.30;;
83840;SDS011;73868;52.172;10.668;2024-03-07T02:28:57;18.17;;;14.57;;
83840;SDS011;73868;52.172;10.668;2024-03-07T02:31:22;17.50;;;15.30;;
83840;SDS011;73868;52.172;10.668;2024-03-07T02:34:00;17.17;;;13.77;;
83840;SDS011;73868;52.172;10.668;2024-03-07T02:36:26;20.63;;;15.90;;
83840;SDS011;73868;52.172;10.668;2024-03-07T02:38:52;18.57;;;14.93;;
83840;SDS011;73868;52.172;10.668;2024-03-07T02:41:18;19.50;;;16.13;;
83840;SDS011;73868;52.172;10.668;2024-03-07T02:43:43;18.23;;;15.33;;
83840;SDS011;73868;52.172;10.668;2024-03-07T02:46:09;19.80;;;15.63;;
83840;SDS011;73868;52.172;10.668;2024-03-07T02:48:36;18.40;;;14.70;;
83840;SDS011;73868;52.172;10.668;2024-03-07T02:51:06;17.20;;;14.33;;
83840;SDS011;73868;52.172;10.668;2024-03-07T02:53:32;17.30;;;14.03;;
83840;SDS011;73868;52.172;10.668;2024-03-07T02:55:57;20.43;;;15.87;;
83840;SDS011;73868;52.172;10.668;2024-03-07T02:58:23;17.90;;;15.70;;
83840;SDS011;73868;52.172;10.668;2024-03-07T03:00:49;16.97;;;14.47;;
83840;SDS011;73868;52.172;10.668;2024-03-07T03:03:28;18.90;;;15.00;;
83840;SDS011;73868;52.172;10.668;2024-03-07T03:05:56;18.83;;;15.60;;
83840;SDS011;73868;52.172;10.668;2024-03-07T03:08:22;18.23;;;14.83;;
83840;SDS011;73868;52.172;10.668;2024-03-07T03:10:49;18.93;;;15.63;;
83840;SDS011;73868;52.172;10.668;2024-03-07T03:13:16;19.13;;;16.07;;
83840;SDS011;73868;52.172;10.668;2024-03-07T03:15:42;16.70;;;14.57;;
83840;SDS011;73868;52.172;10.668;2024-03-07T03:18:08;20.20;;;15.90;;
83840;SDS011;73868;52.172;10.668;2024-03-07T03:20:34;19.60;;;16.10;;
83840;SDS011;73868;52.172;10.668;2024-03-07T03:23:03;22.23;;;17.07;;
83840;SDS011;73868;52.172;10.668;2024-03-07T03:25:36;23.53;;;17.30;;
83840;SDS011;73868;52.172;10.668;2024-03-07T03:28:03;27.13;;;18.83;;
83840;SDS011;73868;52.172;10.668;2024-03-07T03:30:29;25.40;;;18.33;;
83840;SDS011;73868;52.172;10.668;2024-03-07T03:32:55;27.37;;;19.57;;
83840;SDS011;73868;52.172;10.668;2024-03-07T03:35:21;33.63;;;20.63;;
83840;SDS011;73868;52.172;10.668;2024-03-07T03:37:46;30.23;;;20.90;;
83840;SDS011;73868;52.172;10.668;2024-03-07T03:40:12;34.17;;;22.47;;
83840;SDS011;73868;52.172;10.668;2024-03-07T03:42:41;36.10;;;22.90;;
83840;SDS011;73868;52.172;10.668;2024-03-07T03:45:08;41.37;;;24.77;;
83840;SDS011;73868;52.172;10.668;2024-03-07T03:47:36;41.27;;;23.40;;
83840;SDS011;73868;52.172;10.668;2024-03-07T03:50:06;39.30;;;23.90;;
83840;SDS011;73868;52.172;10.668;2024-03-07T03:52:33;35.87;;;22.53;;
83840;SDS011;73868;52.172;10.668;2024-03-07T03:55:00;33.20;;;22.23;;
83840;SDS011;73868;52.172;10.668;2024-03-07T03:57:27;36.27;;;22.57;;
83840;SDS011;73868;52.172;10.668;2024-03-07T03:59:53;39.70;;;23.73;;
83840;SDS011;73868;52.172;10.668;2024-03-07T04:02:19;34.50;;;22.00;;
83840;SDS011;73868;52.172;10.668;2024-03-07T04:04:51;38.27;;;22.77;;
83840;SDS011;73868;52.172;10.668;2024-03-07T04:07:20;30.27;;;20.73;;
83840;SDS011;73868;52.172;10.668;2024-03-07T04:09:46;31.53;;;20.60;;
83840;SDS011;73868;52.172;10.668;2024-03-07T04:12:12;31.50;;;20.73;;
83840;SDS011;73868;52.172;10.668;2024-03-07T04:14:41;33.17;;;21.03;;
83840;SDS011;73868;52.172;10.668;2024-03-07T04:17:09;34.30;;;21.67;;
83840;SDS011;73868;52.172;10.668;2024-03-07T04:19:36;33.33;;;20.93;;
83840;SDS011;73868;52.172;10.668;2024-03-07T04:22:03;30.37;;;19.87;;
83840;SDS011;73868;52.172;10.668;2024-03-07T04:24:32;30.70;;;19.93;;
83840;SDS011;73868;52.172;10.668;2024-03-07T04:27:06;28.73;;;19.97;;
83840;SDS011;73868;52.172;10.668;2024-03-07T04:29:32;28.77;;;19.20;;
83840;SDS011;73868;52.172;10.668;2024-03-07T04:31:59;32.17;;;21.03;;
83840;SDS011;73868;52.172;10.668;2024-03-07T04:34:26;28.77;;;19.67;;
83840;SDS011;73868;52.172;10.668;2024-03-07T04:36:58;34.37;;;20.00;;
83840;SDS011;73868;52.172;10.668;2024-03-07T04:39:27;31.67;;;20.17;;
83840;SDS011;73868;52.172;10.668;2024-03-07T04:41:57;31.63;;;21.07;;
83840;SDS011;73868;52.172;10.668;2024-03-07T04:44:25;32.27;;;20.67;;
83840;SDS011;73868;52.172;10.668;2024-03-07T04:46:51;32.43;;;20.73;;
83840;SDS011;73868;52.172;10.668;2024-03-07T04:49:30;36.88;;;24.80;;
83840;SDS011;73868;52.172;10.668;2024-03-07T04:51:56;38.00;;;23.17;;
83840;SDS011;73868;52.172;10.668;2024-03-07T04:54:24;38.53;;;22.90;;
83840;SDS011;73868;52.172;10.668;2024-03-07T04:56:51;36.80;;;23.53;;
83840;SDS011;73868;52.172;10.668;2024-03-07T04:59:18;36.57;;;23.73;;
83840;SDS011;73868;52.172;10.668;2024-03-07T05:01:44;38.27;;;23.17;;
83840;SDS011;73868;52.172;10.668;2024-03-07T05:04:11;39.03;;;24.17;;
83840;SDS011;73868;52.172;10.668;2024-03-07T05:06:38;39.33;;;23.77;;
83840;SDS011;73868;52.172;10.668;2024-03-07T05:09:04;37.93;;;24.67;;
83840;SDS011;73868;52.172;10.668;2024-03-07T05:11:32;40.60;;;24.03;;
83840;SDS011;73868;52.172;10.668;2024-03-07T05:13:58;45.80;;;25.87;;
83840;SDS011;73868;52.172;10.668;2024-03-07T05:16:25;45.73;;;25.33;;
83840;SDS011;73868;52.172;10.668;2024-03-07T05:18:54;43.67;;;26.57;;
83840;SDS011;73868;52.172;10.668;2024-03-07T05:21:23;41.17;;;24.93;;
83840;SDS011;73868;52.172;10.668;2024-03-07T05:23:57;39.47;;;24.77;;
83840;SDS011;73868;52.172;10.668;2024-03-07T05:26:24;43.37;;;24.93;;
83840;SDS011;73868;52.172;10.668;2024-03-07T05:28:49;41.13;;;25.30;;
83840;SDS011;73868;52.172;10.668;2024-03-07T05:31:16;41.57;;;24.50;;
83840;SDS011;73868;52.172;10.668;2024-03-07T05:33:43;42.50;;;25.00;;
83840;SDS011;73868;52.172;10.668;2024-03-07T05:36:12;45.13;;;25.93;;
83840;SDS011;73868;52.172;10.668;2024-03-07T05:38:43;45.17;;;26.93;;
83840;SDS011;73868;52.172;10.668;2024-03-07T05:41:10;43.37;;;26.70;;
83840;SDS011;73868;52.172;10.668;2024-03-07T05:43:37;47.90;;;28.00;;
83840;SDS011;73868;52.172;10.668;2024-03-07T05:46:03;45.90;;;27.77;;
83840;SDS011;73868;52.172;10.668;2024-03-07T05:48:30;44.50;;;27.20;;
83840;SDS011;73868;52.172;10.668;2024-03-07T05:50:56;46.23;;;27.67;;
83840;SDS011;73868;52.172;10.668;2024-03-07T05:53:22;48.87;;;26.83;;
83840;SDS011;73868;52.172;10.668;2024-03-07T05:55:48;49.17;;;26.83;;
83840;SDS011;73868;52.172;10.668;2024-03-07T05:58:14;49.63;;;26.73;;
83840;SDS011;73868;52.172;10.668;2024-03-07T06:00:42;40.50;;;25.77;;
83840;SDS011;73868;52.172;10.668;2024-03-07T06:03:11;41.77;;;24.90;;
83840;SDS011;73868;52.172;10.668;2024-03-07T06:05:38;45.20;;;25.57;;
83840;SDS011;73868;52.172;10.668;2024-03-07T06:08:07;48.47;;;25.83;;
83840;SDS011;73868;52.172;10.668;2024-03-07T06:10:33;52.53;;;27.87;;
83840;SDS011;73868;52.172;10.668;2024-03-07T06:12:59;56.60;;;29.30;;
83840;SDS011;73868;52.172;10.668;2024-03-07T06:15:24;58.27;;;30.13;;
83840;SDS011;73868;52.172;10.668;2024-03-07T06:17:50;58.67;;;31.17;;
83840;SDS011;73868;52.172;10.668;2024-03-07T06:20:16;59.07;;;29.53;;
83840;SDS011;73868;52.172;10.668;2024-03-07T06:22:50;57.40;;;30.10;;
83840;SDS011;73868;52.172;10.668;2024-03-07T06:25:17;63.00;;;30.63;;
83840;SDS011;73868;52.172;10.668;2024-03-07T06:27:46;59.90;;;31.33;;
83840;SDS011;73868;52.172;10.668;2024-03-07T06:30:14;65.97;;;31.83;;
83840;SDS011;73868;52.172;10.668;2024-03-07T06:32:43;63.00;;;30.70;;
83840;SDS011;73868;52.172;10.668;2024-03-07T06:35:09;65.27;;;32.10;;
83840;SDS011;73868;52.172;10.668;2024-03-07T06:37:35;68.00;;;32.80;;
83840;SDS011;73868;52.172;10.668;2024-03-07T06:40:01;66.80;;;32.20;;
83840;SDS011;73868;52.172;10.668;2024-03-07T06:42:34;72.37;;;33.53;;
83840;SDS011;73868;52.172;10.668;2024-03-07T06:45:02;71.07;;;33.30;;
83840;SDS011;73868;52.172;10.668;2024-03-07T06:47:28;74.83;;;33.20;;
83840;SDS011;73868;52.172;10.668;2024-03-07T06:49:54;73.13;;;32.83;;
83840;SDS011;73868;52.172;10.668;2024-03-07T06:52:21;78.97;;;34.67;;
83840;SDS011;73868;52.172;10.668;2024-03-07T06:54:46;79.13;;;35.17;;
83840;SDS011;73868;52.172;10.668;2024-03-07T06:57:12;85.43;;;34.90;;
83840;SDS011;73868;52.172;10.668;2024-03-07T06:59:37;86.97;;;34.93;;
83840;SDS011;73868;52.172;10.668;2024-03-07T07:02:03;80.10;;;35.60;;
83840;SDS011;73868;52.172;10.668;2024-03-07T07:04:29;82.17;;;35.27;;
83840;SDS011;73868;52.172;10.668;2024-03-07T07:07:06;85.70;;;35.17;;
83840;SDS011;73868;52.172;10.668;2024-03-07T07:09:33;78.87;;;34.43;;
83840;SDS011;73868;52.172;10.668;2024-03-07T07:12:00;83.07;;;35.30;;
83840;SDS011;73868;52.172;10.668;2024-03-07T07:14:28;74.83;;;32.77;;
83840;SDS011;73868;52.172;10.668;2024-03-07T07:16:54;73.67;;;31.87;;
83840;SDS011;73868;52.172;10.668;2024-03-07T07:19:21;74.43;;;33.03;;
83840;SDS011;73868;52.172;10.668;2024-03-07T07:21:47;77.90;;;34.07;;
83840;SDS011;73868;52.172;10.668;2024-03-07T07:24:18;72.70;;;31.60;;
83840;SDS011;73868;52.172;10.668;2024-03-07T07:26:44;66.47;;;32.90;;
83840;SDS011;73868;52.172;10.668;2024-03-07T07:29:10;70.90;;;33.00;;
83840;SDS011;73868;52.172;10.668;2024-03-07T07:31:36;78.07;;;34.47;;
83840;SDS011;73868;52.172;10.668;2024-03-07T07:34:01;72.00;;;33.47;;
83840;SDS011;73868;52.172;10.668;2024-03-07T07:36:29;60.33;;;31.20;;
83840;SDS011;73868;52.172;10.668;2024-03-07T07:38:55;66.10;;;31.73;;
83840;SDS011;73868;52.172;10.668;2024-03-07T07:41:20;58.50;;;30.93;;
83840;SDS011;73868;52.172;10.668;2024-03-07T07:43:46;61.77;;;30.07;;
83840;SDS011;73868;52.172;10.668;2024-03-07T07:46:13;62.53;;;31.63;;
83840;SDS011;73868;52.172;10.668;2024-03-07T07:48:41;59.87;;;29.90;;
83840;SDS011;73868;52.172;10.668;2024-03-07T07:51:06;65.23;;;30.63;;
83840;SDS011;73868;52.172;10.668;2024-03-07T07:53:32;64.77;;;29.33;;
83840;SDS011;73868;52.172;10.668;2024-03-07T07:55:58;55.40;;;30.00;;
83840;SDS011;73868;52.172;10.668;2024-03-07T07:58:23;56.93;;;29.97;;
83840;SDS011;73868;52.172;10.668;2024-03-07T08:00:49;65.53;;;30.40;;
83840;SDS011;73868;52.172;10.668;2024-03-07T08:03:15;63.23;;;29.67;;
83840;SDS011;73868;52.172;10.668;2024-03-07T08:05:43;63.67;;;30.30;;
83840;SDS011;73868;52.172;10.668;2024-03-07T08:08:10;57.30;;;31.27;;
83840;SDS011;73868;52.172;10.668;2024-03-07T08:10:38;61.13;;;30.77;;
83840;SDS011;73868;52.172;10.668;2024-03-07T08:13:06;58.17;;;30.30;;
83840;SDS011;73868;52.172;10.668;2024-03-07T08:15:31;60.17;;;30.10;;
83840;SDS011;73868;52.172;10.668;2024-03-07T08:17:57;57.43;;;29.20;;
83840;SDS011;73868;52.172;10.668;2024-03-07T08:20:24;55.93;;;29.20;;
83840;SDS011;73868;52.172;10.668;2024-03-07T08:22:51;56.03;;;29.87;;
83840;SDS011;73868;52.172;10.668;2024-03-07T08:25:21;54.87;;;28.10;;
83840;SDS011;73868;52.172;10.668;2024-03-07T08:27:48;52.67;;;28.40;;
83840;SDS011;73868;52.172;10.668;2024-03-07T08:30:15;56.53;;;28.20;;
83840;SDS011;73868;52.172;10.668;2024-03-07T08:35:07;50.10;;;28.43;;
83840;SDS011;73868;52.172;10.668;2024-03-07T08:37:38;54.93;;;29.10;;
83840;SDS011;73868;52.172;10.668;2024-03-07T08:40:04;56.50;;;28.73;;
83840;SDS011;73868;52.172;10.668;2024-03-07T08:42:32;54.27;;;27.60;;
83840;SDS011;73868;52.172;10.668;2024-03-07T08:44:59;63.50;;;31.07;;
83840;SDS011;73868;52.172;10.668;2024-03-07T08:47:34;58.43;;;30.63;;
83840;SDS011;73868;52.172;10.668;2024-03-07T08:50:00;59.43;;;30.53;;
83840;SDS011;73868;52.172;10.668;2024-03-07T08:52:26;60.17;;;30.87;;
83840;SDS011;73868;52.172;10.668;2024-03-07T08:54:53;51.87;;;29.53;;
83840;SDS011;73868;52.172;10.668;2024-03-07T08:57:19;51.67;;;29.40;;
83840;SDS011;73868;52.172;10.668;2024-03-07T08:59:46;49.43;;;27.97;;
83840;SDS011;73868;52.172;10.668;2024-03-07T09:02:12;53.47;;;28.47;;
83840;SDS011;73868;52.172;10.668;2024-03-07T09:04:38;49.50;;;28.63;;
83840;SDS011;73868;52.172;10.668;2024-03-07T09:07:04;51.30;;;26.17;;
83840;SDS011;73868;52.172;10.668;2024-03-07T09:09:31;44.45;;;25.45;;
83840;SDS011;73868;52.172;10.668;2024-03-07T09:11:57;49.72;;;27.00;;
83840;SDS011;73868;52.172;10.668;2024-03-07T09:14:23;44.77;;;26.93;;
83840;SDS011;73868;52.172;10.668;2024-03-07T09:16:48;42.97;;;26.10;;
83840;SDS011;73868;52.172;10.668;2024-03-07T09:19:14;38.72;;;23.98;;
83840;SDS011;73868;52.172;10.668;2024-03-07T09:21:45;37.25;;;23.73;;
83840;SDS011;73868;52.172;10.668;2024-03-07T09:24:11;36.60;;;23.90;;
83840;SDS011;73868;52.172;10.668;2024-03-07T09:26:37;34.92;;;21.95;;
83840;SDS011;73868;52.172;10.668;2024-03-07T09:29:03;31.55;;;20.73;;
83840;SDS011;73868;52.172;10.668;2024-03-07T09:31:31;34.50;;;22.27;;
83840;SDS011;73868;52.172;10.668;2024-03-07T09:33:57;36.22;;;22.20;;
83840;SDS011;73868;52.172;10.668;2024-03-07T09:36:23;37.00;;;21.65;;
83840;SDS011;73868;52.172;10.668;2024-03-07T09:38:49;31.83;;;21.13;;
83840;SDS011;73868;52.172;10.668;2024-03-07T09:41:15;31.38;;;20.38;;
83840;SDS011;73868;52.172;10.668;2024-03-07T09:43:43;34.78;;;21.90;;
83840;SDS011;73868;52.172;10.668;2024-03-07T09:46:11;29.33;;;19.67;;
83840;SDS011;73868;52.172;10.668;2024-03-07T09:48:37;30.10;;;19.85;;
83840;SDS011;73868;52.172;10.668;2024-03-07T09:51:04;31.13;;;20.55;;
83840;SDS011;73868;52.172;10.668;2024-03-07T09:53:32;25.52;;;17.58;;
83840;SDS011;73868;52.172;10.668;2024-03-07T09:55:59;24.73;;;18.20;;
83840;SDS011;73868;52.172;10.668;2024-03-07T09:58:26;29.52;;;18.17;;
83840;SDS011;73868;52.172;10.668;2024-03-07T10:00:55;32.88;;;20.20;;
83840;SDS011;73868;52.172;10.668;2024-03-07T10:03:22;25.88;;;17.98;;
83840;SDS011;73868;52.172;10.668;2024-03-07T10:05:53;30.27;;;19.17;;
83840;SDS011;73868;52.172;10.668;2024-03-07T10:08:18;29.30;;;19.15;;
83840;SDS011;73868;52.172;10.668;2024-03-07T10:10:45;28.00;;;19.35;;
83840;SDS011;73868;52.172;10.668;2024-03-07T10:13:12;29.30;;;19.05;;
83840;SDS011;73868;52.172;10.668;2024-03-07T10:15:38;27.38;;;19.55;;
83840;SDS011;73868;52.172;10.668;2024-03-07T10:18:06;24.60;;;18.47;;
83840;SDS011;73868;52.172;10.668;2024-03-07T10:20:36;27.63;;;18.47;;
83840;SDS011;73868;52.172;10.668;2024-03-07T10:23:02;29.10;;;19.73;;
83840;SDS011;73868;52.172;10.668;2024-03-07T10:25:29;29.00;;;20.13;;
83840;SDS011;73868;52.172;10.668;2024-03-07T10:27:54;26.73;;;18.43;;
83840;SDS011;73868;52.172;10.668;2024-03-07T10:30:20;28.00;;;18.83;;
83840;SDS011;73868;52.172;10.668;2024-03-07T10:32:54;30.05;;;18.60;;
83840;SDS011;73868;52.172;10.668;2024-03-07T10:35:22;24.40;;;17.77;;
83840;SDS011;73868;52.172;10.668;2024-03-07T10:37:49;25.15;;;18.52;;
83840;SDS011;73868;52.172;10.668;2024-03-07T10:40:19;24.63;;;18.38;;
83840;SDS011;73868;52.172;10.668;2024-03-07T10:42:47;28.55;;;18.90;;
83840;SDS011;73868;52.172;10.668;2024-03-07T10:45:19;24.90;;;18.48;;
83840;SDS011;73868;52.172;10.668;2024-03-07T10:47:55;26.25;;;19.67;;
83840;SDS011;73868;52.172;10.668;2024-03-07T10:53:07;28.17;;;20.25;;
83840;SDS011;73868;52.172;10.668;2024-03-07T10:55:40;28.90;;;21.45;;
83840;SDS011;73868;52.172;10.668;2024-03-07T11:01:06;29.25;;;20.95;;
83840;SDS011;73868;52.172;10.668;2024-03-07T11:03:36;31.98;;;21.48;;
83840;SDS011;73868;52.172;10.668;2024-03-07T11:06:02;33.40;;;22.73;;
83840;SDS011;73868;52.172;10.668;2024-03-07T11:08:34;31.23;;;21.83;;
83840;SDS011;73868;52.172;10.668;2024-03-07T11:11:02;28.07;;;20.60;;
83840;SDS011;73868;52.172;10.668;2024-03-07T11:13:27;25.47;;;18.33;;
83840;SDS011;73868;52.172;10.668;2024-03-07T11:15:58;26.47;;;18.67;;
83840;SDS011;73868;52.172;10.668;2024-03-07T11:18:25;25.93;;;18.20;;
83840;SDS011;73868;52.172;10.668;2024-03-07T11:20:51;25.63;;;17.07;;
83840;SDS011;73868;52.172;10.668;2024-03-07T11:23:25;24.65;;;16.85;;
83840;SDS011;73868;52.172;10.668;2024-03-07T11:26:08;23.88;;;16.40;;
83840;SDS011;73868;52.172;10.668;2024-03-07T11:28:38;24.23;;;16.75;;
83840;SDS011;73868;52.172;10.668;2024-03-07T11:31:13;26.73;;;17.90;;
83840;SDS011;73868;52.172;10.668;2024-03-07T11:33:39;24.83;;;17.10;;
83840;SDS011;73868;52.172;10.668;2024-03-07T11:36:10;22.95;;;15.93;;
83840;SDS011;73868;52.172;10.668;2024-03-07T11:38:37;20.60;;;15.63;;
83840;SDS011;73868;52.172;10.668;2024-03-07T11:41:09;23.83;;;15.82;;
83840;SDS011;73868;52.172;10.668;2024-03-07T11:43:38;20.63;;;15.38;;
83840;SDS011;73868;52.172;10.668;2024-03-07T11:46:05;22.10;;;16.10;;
83840;SDS011;73868;52.172;10.668;2024-03-07T11:48:38;19.67;;;15.05;;
83840;SDS011;73868;52.172;10.668;2024-03-07T11:51:06;20.00;;;14.50;;
83840;SDS011;73868;52.172;10.668;2024-03-07T11:53:35;22.98;;;16.05;;
83840;SDS011;73868;52.172;10.668;2024-03-07T11:56:03;21.02;;;16.08;;
83840;SDS011;73868;52.172;10.668;2024-03-07T11:58:37;21.02;;;16.40;;
83840;SDS011;73868;52.172;10.668;2024-03-07T12:01:06;19.25;;;14.52;;
83840;SDS011;73868;52.172;10.668;2024-03-07T12:03:35;19.85;;;15.02;;
83840;SDS011;73868;52.172;10.668;2024-03-07T12:06:02;19.00;;;13.80;;
83840;SDS011;73868;52.172;10.668;2024-03-07T12:08:28;21.30;;;14.63;;
83840;SDS011;73868;52.172;10.668;2024-03-07T12:10:54;22.45;;;14.23;;
83840;SDS011;73868;52.172;10.668;2024-03-07T12:13:21;23.25;;;14.80;;
83840;SDS011;73868;52.172;10.668;2024-03-07T12:15:48;17.48;;;14.10;;
83840;SDS011;73868;52.172;10.668;2024-03-07T12:18:16;19.33;;;15.07;;
83840;SDS011;73868;52.172;10.668;2024-03-07T12:20:44;20.40;;;15.57;;
83840;SDS011;73868;52.172;10.668;2024-03-07T12:23:16;19.77;;;15.10;;
83840;SDS011;73868;52.172;10.668;2024-03-07T12:25:44;19.90;;;15.10;;
83840;SDS011;73868;52.172;10.668;2024-03-07T12:28:11;20.00;;;14.13;;
83840;SDS011;73868;52.172;10.668;2024-03-07T12:30:48;20.53;;;15.47;;
83840;SDS011;73868;52.172;10.668;2024-03-07T12:33:16;20.87;;;14.33;;
83840;SDS011;73868;52.172;10.668;2024-03-07T12:35:43;20.30;;;15.13;;
83840;SDS011;73868;52.172;10.668;2024-03-07T12:38:09;18.57;;;13.93;;
83840;SDS011;73868;52.172;10.668;2024-03-07T12:40:41;19.20;;;14.83;;
83840;SDS011;73868;52.172;10.668;2024-03-07T12:43:15;17.67;;;13.63;;
83840;SDS011;73868;52.172;10.668;2024-03-07T12:45:43;19.27;;;13.97;;
83840;SDS011;73868;52.172;10.668;2024-03-07T12:48:09;17.57;;;13.73;;
83840;SDS011;73868;52.172;10.668;2024-03-07T12:50:39;18.20;;;14.32;;
83840;SDS011;73868;52.172;10.668;2024-03-07T12:53:05;16.92;;;13.65;;
83840;SDS011;73868;52.172;10.668;2024-03-07T12:55:37;19.10;;;14.03;;
83840;SDS011;73868;52.172;10.668;2024-03-07T12:58:06;17.92;;;14.05;;
83840;SDS011;73868;52.172;10.668;2024-03-07T13:00:34;17.35;;;13.30;;
83840;SDS011;73868;52.172;10.668;2024-03-07T13:03:00;17.65;;;13.13;;
83840;SDS011;73868;52.172;10.668;2024-03-07T13:05:27;16.58;;;12.95;;
83840;SDS011;73868;52.172;10.668;2024-03-07T13:07:52;15.85;;;12.80;;
83840;SDS011;73868;52.172;10.668;2024-03-07T13:10:18;16.55;;;12.88;;
83840;SDS011;73868;52.172;10.668;2024-03-07T13:12:45;18.00;;;14.10;;
83840;SDS011;73868;52.172;10.668;2024-03-07T13:15:15;17.60;;;13.70;;
83840;SDS011;73868;52.172;10.668;2024-03-07T13:17:41;18.33;;;13.93;;
83840;SDS011;73868;52.172;10.668;2024-03-07T13:20:13;17.75;;;13.18;;
83840;SDS011;73868;52.172;10.668;2024-03-07T13:22:42;15.70;;;13.02;;
83840;SDS011;73868;52.172;10.668;2024-03-07T13:25:12;17.90;;;13.48;;
83840;SDS011;73868;52.172;10.668;2024-03-07T13:27:43;16.80;;;13.00;;
83840;SDS011;73868;52.172;10.668;2024-03-07T13:30:25;16.77;;;12.73;;
83840;SDS011;73868;52.172;10.668;2024-03-07T13:32:55;16.58;;;13.23;;
83840;SDS011;73868;52.172;10.668;2024-03-07T13:35:21;15.20;;;12.82;;
83840;SDS011;73868;52.172;10.668;2024-03-07T13:37:48;17.70;;;13.33;;
83840;SDS011;73868;52.172;10.668;2024-03-07T13:40:15;18.23;;;13.63;;
83840;SDS011;73868;52.172;10.668;2024-03-07T13:42:54;16.57;;;12.90;;
83840;SDS011;73868;52.172;10.668;2024-03-07T13:45:21;17.80;;;13.60;;
83840;SDS011;73868;52.172;10.668;2024-03-07T13:47:56;20.10;;;13.90;;
83840;SDS011;73868;52.172;10.668;2024-03-07T13:50:23;18.65;;;13.35;;
83840;SDS011;73868;52.172;10.668;2024-03-07T13:52:52;17.17;;;13.57;;
83840;SDS011;73868;52.172;10.668;2024-03-07T13:58:29;16.67;;;12.97;;
83840;SDS011;73868;52.172;10.668;2024-03-07T14:09:44;16.63;;;13.40;;
83840;SDS011;73868;52.172;10.668;2024-03-07T14:19:01;20.13;;;14.73;;
83840;SDS011;73868;52.172;10.668;2024-03-07T14:21:58;17.30;;;13.50;;
83840;SDS011;73868;52.172;10.668;2024-03-07T14:27:26;16.83;;;13.50;;
83840;SDS011;73868;52.172;10.668;2024-03-07T14:32:46;16.73;;;13.07;;
83840;SDS011;73868;52.172;10.668;2024-03-07T14:38:03;16.33;;;14.03;;
83840;SDS011;73868;52.172;10.668;2024-03-07T14:40:47;14.53;;;12.27;;
83840;SDS011;73868;52.172;10.668;2024-03-07T14:43:14;15.85;;;11.98;;
83840;SDS011;73868;52.172;10.668;2024-03-07T14:45:41;15.90;;;12.82;;